sensor_id;sensor_type;location;lat;lon;timestamp;pressure;altitude;pressure_sealevel;temperature;humidity
29121;BME280;16191;49.548;8.658;2023-03-03T00:01:39;100712.66;;;3.00;100.00
29121;BME280;16191;49.548;8.658;2023-03-03T00:04:07;100715.22;;;3.02;100.00
29121;BME280;16191;49.548;8.658;2023-03-03T00:06:34;100716.09;;;2.95;100.00
29121;BME280;16191;49.548;8.658;2023-03-03T00:09:00;100715.22;;;2.97;100.00
29121;BME280;16191;49.548;8.658;2023-03-03T00:11:27;100722.09;;;2.98;100.00
29121;BME280;16191;49.548;8.658;2023-03-03T00:13:55;100725.53;;;2.84;100.00
29121;BME280;16191;49.548;8.658;2023-03-03T00:16:28;100722.97;;;2.82;100.00
29121;BME280;16191;49.548;8.658;2023-03-03T00:18:56;100716.94;;;2.82;100.00
29121;BME280;16191;49.548;8.658;2023-03-03T00:24:21;100718.72;;;2.70;100.00
29121;BME280;16191;49.548;8.658;2023-03-03T00:26:53;100726.44;;;2.69;100.00
29121;BME280;16191;49.548;8.658;2023-03-03T00:34:42;100731.63;;;2.60;100.00
29121;BME280;16191;49.548;8.658;2023-03-03T00:37:26;100732.47;;;2.57;100.00
29121;BME280;16191;49.548;8.658;2023-03-03T00:40:02;100735.91;;;2.56;100.00
29121;BME280;16191;49.548;8.658;2023-03-03T00:42:34;100737.63;;;2.51;100.00
29121;BME280;16191;49.548;8.658;2023-03-03T00:45:16;100735.91;;;2.46;100.00
29121;BME280;16191;49.548;8.658;2023-03-03T00:47:43;100731.59;;;2.46;100.00
29121;BME280;16191;49.548;8.658;2023-03-03T00:52:39;100746.22;;;2.36;100.00
29121;BME280;16191;49.548;8.658;2023-03-03T00:55:07;100747.06;;;2.35;100.00
29121;BME280;16191;49.548;8.658;2023-03-03T00:57:34;100745.34;;;2.31;100.00
29121;BME280;16191;49.548;8.658;2023-03-03T01:00:03;100744.47;;;2.31;100.00
29121;BME280;16191;49.548;8.658;2023-03-03T01:02:31;100742.75;;;2.27;100.00
29121;BME280;16191;49.548;8.658;2023-03-03T01:04:58;100747.06;;;2.16;100.00
29121;BME280;16191;49.548;8.658;2023-03-03T01:07:24;100741.88;;;2.11;100.00
29121;BME280;16191;49.548;8.658;2023-03-03T01:09:51;100743.59;;;2.20;100.00
29121;BME280;16191;49.548;8.658;2023-03-03T01:12:19;100741.88;;;2.10;100.00
29121;BME280;16191;49.548;8.658;2023-03-03T01:14:45;100742.72;;;2.05;100.00
29121;BME280;16191;49.548;8.658;2023-03-03T01:17:14;100743.59;;;2.04;100.00
29121;BME280;16191;49.548;8.658;2023-03-03T01:19:41;100747.88;;;2.05;100.00
29121;BME280;16191;49.548;8.658;2023-03-03T01:22:07;100741.88;;;2.02;100.00
29121;BME280;16191;49.548;8.658;2023-03-03T01:24:34;100743.56;;;2.00;100.00
29121;BME280;16191;49.548;8.658;2023-03-03T01:27:00;100749.56;;;1.90;100.00
29121;BME280;16191;49.548;8.658;2023-03-03T01:29:26;100750.44;;;1.95;100.00
29121;BME280;16191;49.548;8.658;2023-03-03T01:31:53;100747.84;;;1.90;100.00
29121;BME280;16191;49.548;8.658;2023-03-03T01:34:20;100742.69;;;1.81;100.00
29121;BME280;16191;49.548;8.658;2023-03-03T01:36:47;100750.41;;;1.83;100.00
29121;BME280;16191;49.548;8.658;2023-03-03T01:39:13;100750.38;;;1.72;100.00
29121;BME280;16191;49.548;8.658;2023-03-03T01:41:40;100746.78;;;1.35;100.00
29121;BME280;16191;49.548;8.658;2023-03-03T01:44:12;100750.28;;;1.46;100.00
29121;BME280;16191;49.548;8.658;2023-03-03T01:46:45;100745.22;;;1.67;100.00
29121;BME280;16191;49.548;8.658;2023-03-03T01:49:22;100744.34;;;1.64;100.00
29121;BME280;16191;49.548;8.658;2023-03-03T01:51:57;100743.50;;;1.65;100.00
29121;BME280;16191;49.548;8.658;2023-03-03T01:54:29;100748.66;;;1.71;100.00
29121;BME280;16191;49.548;8.658;2023-03-03T01:57:02;100737.44;;;1.48;100.00
29121;BME280;16191;49.548;8.658;2023-03-03T01:59:34;100738.31;;;1.50;100.00
29121;BME280;16191;49.548;8.658;2023-03-03T02:02:01;100730.56;;;1.54;100.00
29121;BME280;16191;49.548;8.658;2023-03-03T02:04:29;100734.78;;;1.35;100.00
29121;BME280;16191;49.548;8.658;2023-03-03T02:06:59;100727.09;;;1.37;100.00
29121;BME280;16191;49.548;8.658;2023-03-03T02:09:42;100724.56;;;1.46;100.00
29121;BME280;16191;49.548;8.658;2023-03-03T02:12:14;100721.88;;;1.20;100.00
29121;BME280;16191;49.548;8.658;2023-03-03T02:14:43;100726.19;;;1.26;100.00
29121;BME280;16191;49.548;8.658;2023-03-03T02:17:10;100719.34;;;1.25;100.00
29121;BME280;16191;49.548;8.658;2023-03-03T02:19:46;100717.63;;;1.31;100.00
29121;BME280;16191;49.548;8.658;2023-03-03T02:22:17;100719.38;;;1.29;100.00
29121;BME280;16191;49.548;8.658;2023-03-03T02:24:52;100727.09;;;1.35;100.00
29121;BME280;16191;49.548;8.658;2023-03-03T02:27:22;100724.47;;;1.23;100.00
29121;BME280;16191;49.548;8.658;2023-03-03T02:29:49;100727.06;;;1.28;100.00
29121;BME280;16191;49.548;8.658;2023-03-03T02:32:17;100722.78;;;1.33;100.00
29121;BME280;16191;49.548;8.658;2023-03-03T02:35:25;100728.78;;;1.35;100.00
29121;BME280;16191;49.548;8.658;2023-03-03T02:44:42;100722.69;;;1.07;100.00
29121;BME280;16191;49.548;8.658;2023-03-03T02:47:28;100714.91;;;0.96;100.00
29121;BME280;16191;49.548;8.658;2023-03-03T02:49:55;100709.78;;;0.98;100.00
29121;BME280;16191;49.548;8.658;2023-03-03T02:52:21;100719.25;;;1.05;100.00
29121;BME280;16191;49.548;8.658;2023-03-03T02:54:48;100722.69;;;1.06;100.00
29121;BME280;16191;49.548;8.658;2023-03-03T02:57:14;100714.13;;;1.07;100.00
29121;BME280;16191;49.548;8.658;2023-03-03T02:59:41;100723.53;;;1.05;100.00
29121;BME280;16191;49.548;8.658;2023-03-03T03:02:11;100720.84;;;0.89;100.00
29121;BME280;16191;49.548;8.658;2023-03-03T03:04:37;100716.59;;;0.94;100.00
29121;BME280;16191;49.548;8.658;2023-03-03T03:07:04;100716.63;;;0.99;100.00
29121;BME280;16191;49.548;8.658;2023-03-03T03:09:33;100720.81;;;0.82;100.00
29121;BME280;16191;49.548;8.658;2023-03-03T03:12:00;100726.59;;;0.52;100.00
29121;BME280;16191;49.548;8.658;2023-03-03T03:14:31;100718.00;;;0.47;100.00
29121;BME280;16191;49.548;8.658;2023-03-03T03:16:57;100728.19;;;0.36;100.00
29121;BME280;16191;49.548;8.658;2023-03-03T03:19:26;100720.53;;;0.39;100.00
29121;BME280;16191;49.548;8.658;2023-03-03T03:21:53;100712.94;;;0.57;100.00
29121;BME280;16191;49.548;8.658;2023-03-03T03:24:19;100719.81;;;0.60;100.00
29121;BME280;16191;49.548;8.658;2023-03-03T03:26:52;100725.00;;;0.71;100.00
29121;BME280;16191;49.548;8.658;2023-03-03T03:29:20;100719.84;;;0.61;100.00
29121;BME280;16191;49.548;8.658;2023-03-03T03:31:47;100724.94;;;0.58;100.00
29121;BME280;16191;49.548;8.658;2023-03-03T03:34:13;100727.44;;;0.51;100.00
29121;BME280;16191;49.548;8.658;2023-03-03T03:36:40;100717.25;;;0.61;100.00
29121;BME280;16191;49.548;8.658;2023-03-03T03:39:06;100725.00;;;0.64;100.00
29121;BME280;16191;49.548;8.658;2023-03-03T03:41:36;100722.41;;;0.67;100.00
29121;BME280;16191;49.548;8.658;2023-03-03T03:44:03;100723.28;;;0.69;100.00
29121;BME280;16191;49.548;8.658;2023-03-03T03:46:29;100727.59;;;0.74;100.00
29121;BME280;16191;49.548;8.658;2023-03-03T03:48:56;100724.94;;;0.58;100.00
29121;BME280;16191;49.548;8.658;2023-03-03T03:51:24;100726.75;;;0.73;100.00
29121;BME280;16191;49.548;8.658;2023-03-03T03:53:50;100727.53;;;0.66;100.00
29121;BME280;16191;49.548;8.658;2023-03-03T03:56:17;100733.53;;;0.66;100.00
29121;BME280;16191;49.548;8.658;2023-03-03T03:58:46;100731.84;;;0.67;100.00
29121;BME280;16191;49.548;8.658;2023-03-03T04:01:14;100731.06;;;0.77;100.00
29121;BME280;16191;49.548;8.658;2023-03-03T04:03:45;100737.91;;;0.77;100.00
29121;BME280;16191;49.548;8.658;2023-03-03T04:06:15;100735.28;;;0.64;100.00
29121;BME280;16191;49.548;8.658;2023-03-03T04:08:42;100734.41;;;0.68;100.00
29121;BME280;16191;49.548;8.658;2023-03-03T04:11:10;100741.28;;;0.69;100.00
29121;BME280;16191;49.548;8.658;2023-03-03T04:13:36;100744.69;;;0.68;100.00
29121;BME280;16191;49.548;8.658;2023-03-03T04:16:05;100735.28;;;0.64;100.00
29121;BME280;16191;49.548;8.658;2023-03-03T04:18:33;100742.03;;;0.56;100.00
29121;BME280;16191;49.548;8.658;2023-03-03T04:21:00;100742.91;;;0.57;100.00
29121;BME280;16191;49.548;8.658;2023-03-03T04:23:27;100741.94;;;0.44;100.00
29121;BME280;16191;49.548;8.658;2023-03-03T04:25:53;100743.63;;;0.39;100.00
29121;BME280;16191;49.548;8.658;2023-03-03T04:28:21;100742.66;;;0.29;100.00
29121;BME280;16191;49.548;8.658;2023-03-03T04:30:51;100741.84;;;0.32;100.00
29121;BME280;16191;49.548;8.658;2023-03-03T04:33:19;100738.47;;;0.36;100.00
29121;BME280;16191;49.548;8.658;2023-03-03T04:35:47;100736.81;;;0.47;100.00
29121;BME280;16191;49.548;8.658;2023-03-03T04:38:13;100733.44;;;0.51;100.00
29121;BME280;16191;49.548;8.658;2023-03-03T04:40:41;100740.38;;;0.60;100.00
29121;BME280;16191;49.548;8.658;2023-03-03T04:43:09;100737.66;;;0.46;100.00
29121;BME280;16191;49.548;8.658;2023-03-03T04:45:36;100747.19;;;0.56;100.00
29121;BME280;16191;49.548;8.658;2023-03-03T04:48:03;100751.44;;;0.53;100.00
29121;BME280;16191;49.548;8.658;2023-03-03T04:50:30;100744.53;;;0.49;100.00
29121;BME280;16191;49.548;8.658;2023-03-03T04:52:57;100742.91;;;0.58;100.00
29121;BME280;16191;49.548;8.658;2023-03-03T04:55:23;100749.72;;;0.53;100.00
29121;BME280;16191;49.548;8.658;2023-03-03T04:57:50;100752.31;;;0.58;100.00
29121;BME280;16191;49.548;8.658;2023-03-03T05:00:17;100759.19;;;0.60;100.00
29121;BME280;16191;49.548;8.658;2023-03-03T05:02:46;100750.66;;;0.63;100.00
29121;BME280;16191;49.548;8.658;2023-03-03T05:05:13;100758.31;;;0.57;100.00
29121;BME280;16191;49.548;8.658;2023-03-03T05:07:40;100756.63;;;0.60;100.00
29121;BME280;16191;49.548;8.658;2023-03-03T05:10:07;100771.19;;;0.60;100.00
29121;BME280;16191;49.548;8.658;2023-03-03T05:12:34;100776.28;;;0.55;100.00
29121;BME280;16191;49.548;8.658;2023-03-03T05:15:00;100777.88;;;0.44;100.00
29121;BME280;16191;49.548;8.658;2023-03-03T05:17:27;100784.81;;;0.54;100.00
29121;BME280;16191;49.548;8.658;2023-03-03T05:19:54;100783.09;;;0.52;100.00
29121;BME280;16191;49.548;8.658;2023-03-03T05:22:23;100782.22;;;0.51;100.00
29121;BME280;16191;49.548;8.658;2023-03-03T05:24:49;100789.88;;;0.45;100.00
29121;BME280;16191;49.548;8.658;2023-03-03T05:27:16;100789.88;;;0.47;100.00
29121;BME280;16191;49.548;8.658;2023-03-03T05:29:42;100788.22;;;0.53;100.00
29121;BME280;16191;49.548;8.658;2023-03-03T05:32:09;100783.91;;;0.49;100.00
29121;BME280;16191;49.548;8.658;2023-03-03T05:34:36;100792.38;;;0.36;100.00
29121;BME280;16191;49.548;8.658;2023-03-03T05:37:02;100789.78;;;0.34;100.00
29121;BME280;16191;49.548;8.658;2023-03-03T05:39:33;100786.34;;;0.34;100.00
29121;BME280;16191;49.548;8.658;2023-03-03T05:42:00;100791.50;;;0.34;100.00
29121;BME280;16191;49.548;8.658;2023-03-03T05:44:27;100793.19;;;0.32;100.00
29121;BME280;16191;49.548;8.658;2023-03-03T05:46:54;100802.63;;;0.36;100.00
29121;BME280;16191;49.548;8.658;2023-03-03T05:49:22;100805.16;;;0.33;100.00
29121;BME280;16191;49.548;8.658;2023-03-03T05:51:48;100800.97;;;0.40;100.00
29121;BME280;16191;49.548;8.658;2023-03-03T05:54:15;100812.91;;;0.38;100.00
29121;BME280;16191;49.548;8.658;2023-03-03T05:56:41;100807.84;;;0.42;100.00
29121;BME280;16191;49.548;8.658;2023-03-03T05:59:07;100804.41;;;0.45;100.00
29121;BME280;16191;49.548;8.658;2023-03-03T06:01:34;100806.16;;;0.47;100.00
29121;BME280;16191;49.548;8.658;2023-03-03T06:04:01;100801.91;;;0.52;100.00
29121;BME280;16191;49.548;8.658;2023-03-03T06:06:27;100801.84;;;0.45;100.00
29121;BME280;16191;49.548;8.658;2023-03-03T06:08:54;100807.84;;;0.47;100.00
29121;BME280;16191;49.548;8.658;2023-03-03T06:11:22;100801.81;;;0.40;100.00
29121;BME280;16191;49.548;8.658;2023-03-03T06:13:49;100800.91;;;0.35;100.00
29121;BME280;16191;49.548;8.658;2023-03-03T06:16:16;100805.94;;;0.24;100.00
29121;BME280;16191;49.548;8.658;2023-03-03T06:18:43;100809.34;;;0.23;100.00
29121;BME280;16191;49.548;8.658;2023-03-03T06:21:10;100819.59;;;0.23;100.00
29121;BME280;16191;49.548;8.658;2023-03-03T06:23:37;100822.25;;;0.31;100.00
29121;BME280;16191;49.548;8.658;2023-03-03T06:26:04;100820.44;;;0.19;100.00
29121;BME280;16191;49.548;8.658;2023-03-03T06:28:30;100816.16;;;0.18;100.00
29121;BME280;16191;49.548;8.658;2023-03-03T06:30:57;100828.06;;;0.12;100.00
29121;BME280;16191;49.548;8.658;2023-03-03T06:33:24;100831.47;;;0.12;100.00
29121;BME280;16191;49.548;8.658;2023-03-03T06:35:51;100826.38;;;0.15;100.00
29121;BME280;16191;49.548;8.658;2023-03-03T06:38:19;100833.16;;;0.09;100.00
29121;BME280;16191;49.548;8.658;2023-03-03T06:40:46;100834.91;;;0.13;100.00
29121;BME280;16191;49.548;8.658;2023-03-03T06:43:13;100844.28;;;0.09;100.00
29121;BME280;16191;49.548;8.658;2023-03-03T06:45:39;100853.72;;;0.13;100.00
29121;BME280;16191;49.548;8.658;2023-03-03T06:48:06;100859.81;;;0.23;100.00
29121;BME280;16191;49.548;8.658;2023-03-03T06:50:33;100866.75;;;0.30;100.00
29121;BME280;16191;49.548;8.658;2023-03-03T06:53:14;100878.81;;;0.37;100.00
29121;BME280;16191;49.548;8.658;2023-03-03T06:55:42;100873.72;;;0.40;100.00
29121;BME280;16191;49.548;8.658;2023-03-03T06:58:13;100882.28;;;0.45;100.00
29121;BME280;16191;49.548;8.658;2023-03-03T07:00:45;100883.16;;;0.47;100.00
29121;BME280;16191;49.548;8.658;2023-03-03T07:03:24;100889.25;;;0.55;100.00
29121;BME280;16191;49.548;8.658;2023-03-03T07:05:53;100883.16;;;0.47;100.00
29121;BME280;16191;49.548;8.658;2023-03-03T07:08:22;100884.97;;;0.54;100.00
29121;BME280;16191;49.548;8.658;2023-03-03T07:10:50;100880.78;;;0.62;100.00
29121;BME280;16191;49.548;8.658;2023-03-03T07:13:26;100876.50;;;0.61;100.00
29121;BME280;16191;49.548;8.658;2023-03-03T07:15:55;100873.06;;;0.61;100.00
29121;BME280;16191;49.548;8.658;2023-03-03T07:20:51;100883.50;;;0.79;100.00
29121;BME280;16191;49.548;8.658;2023-03-03T07:25:48;100877.72;;;1.05;100.00
29121;BME280;16191;49.548;8.658;2023-03-03T07:28:22;100888.09;;;1.18;100.00
29121;BME280;16191;49.548;8.658;2023-03-03T07:30:50;100886.41;;;1.20;100.00
29121;BME280;16191;49.548;8.658;2023-03-03T07:33:28;100882.19;;;1.34;100.00
29121;BME280;16191;49.548;8.658;2023-03-03T07:35:58;100888.25;;;1.40;100.00
29121;BME280;16191;49.548;8.658;2023-03-03T07:38:52;100889.19;;;1.54;100.00
29121;BME280;16191;49.548;8.658;2023-03-03T07:41:17;100896.09;;;1.61;100.00
29121;BME280;16191;49.548;8.658;2023-03-03T07:43:50;100899.50;;;1.58;100.00
29121;BME280;16191;49.548;8.658;2023-03-03T07:46:26;100902.19;;;1.78;100.00
29121;BME280;16191;49.548;8.658;2023-03-03T07:48:55;100902.25;;;1.90;100.00
29121;BME280;16191;49.548;8.658;2023-03-03T07:51:35;100898.88;;;2.03;100.00
29121;BME280;16191;49.548;8.658;2023-03-03T07:54:28;100909.22;;;2.11;100.00
29121;BME280;16191;49.548;8.658;2023-03-03T07:57:10;100910.09;;;2.19;100.00
29121;BME280;16191;49.548;8.658;2023-03-03T07:59:45;100925.59;;;2.27;100.00
29121;BME280;16191;49.548;8.658;2023-03-03T08:04:58;100929.09;;;2.50;100.00
29121;BME280;16191;49.548;8.658;2023-03-03T08:07:29;100937.63;;;2.40;100.00
29121;BME280;16191;49.548;8.658;2023-03-03T08:09:59;100942.88;;;2.64;100.00
29121;BME280;16191;49.548;8.658;2023-03-03T08:12:38;100939.50;;;2.99;98.22
29121;BME280;16191;49.548;8.658;2023-03-03T08:15:24;100943.75;;;2.83;97.41
29121;BME280;16191;49.548;8.658;2023-03-03T08:17:54;100946.34;;;2.79;97.64
29121;BME280;16191;49.548;8.658;2023-03-03T08:22:54;100948.09;;;2.95;97.40
29121;BME280;16191;49.548;8.658;2023-03-03T08:25:21;100947.25;;;3.14;95.48
29121;BME280;16191;49.548;8.658;2023-03-03T08:27:47;100945.53;;;3.18;95.20
29121;BME280;16191;49.548;8.658;2023-03-03T08:30:14;100949.84;;;3.44;92.48
29121;BME280;16191;49.548;8.658;2023-03-03T08:32:41;100944.66;;;3.49;92.99
29121;BME280;16191;49.548;8.658;2023-03-03T08:35:08;100944.66;;;3.54;93.23
29121;BME280;16191;49.548;8.658;2023-03-03T08:37:35;100937.75;;;3.69;91.29
29121;BME280;16191;49.548;8.658;2023-03-03T08:40:01;100937.72;;;3.72;92.06
29121;BME280;16191;49.548;8.658;2023-03-03T08:42:28;100934.28;;;3.84;90.58
29121;BME280;16191;49.548;8.658;2023-03-03T08:44:55;100932.44;;;4.26;90.15
29121;BME280;16191;49.548;8.658;2023-03-03T08:47:22;100931.56;;;4.21;88.86
29121;BME280;16191;49.548;8.658;2023-03-03T08:49:48;100935.03;;;4.21;89.12
29121;BME280;16191;49.548;8.658;2023-03-03T08:52:15;100949.72;;;4.08;87.74
29121;BME280;16191;49.548;8.658;2023-03-03T08:54:42;100939.31;;;4.22;86.10
29121;BME280;16191;49.548;8.658;2023-03-03T08:57:08;100945.38;;;4.15;87.36
29121;BME280;16191;49.548;8.658;2023-03-03T08:59:35;100947.06;;;4.28;85.87
29121;BME280;16191;49.548;8.658;2023-03-03T09:02:05;100947.84;;;4.42;88.56
29121;BME280;16191;49.548;8.658;2023-03-03T09:04:32;100950.31;;;4.62;88.23
29121;BME280;16191;49.548;8.658;2023-03-03T09:06:58;100948.63;;;4.60;88.60
29121;BME280;16191;49.548;8.658;2023-03-03T09:09:25;100942.41;;;4.90;88.64
29121;BME280;16191;49.548;8.658;2023-03-03T09:12:04;100942.38;;;4.97;85.63
29121;BME280;16191;49.548;8.658;2023-03-03T09:14:38;100942.25;;;5.15;84.21
29121;BME280;16191;49.548;8.658;2023-03-03T09:17:18;100940.53;;;5.10;83.60
29121;BME280;16191;49.548;8.658;2023-03-03T09:19:48;100940.56;;;5.05;85.87
29121;BME280;16191;49.548;8.658;2023-03-03T09:22:24;100937.09;;;5.12;85.40
29121;BME280;16191;49.548;8.658;2023-03-03T09:24:56;100936.75;;;5.50;83.64
29121;BME280;16191;49.548;8.658;2023-03-03T09:27:28;100943.56;;;5.62;82.81
29121;BME280;16191;49.548;8.658;2023-03-03T09:30:00;100941.50;;;5.96;81.98
29121;BME280;16191;49.548;8.658;2023-03-03T09:32:34;100937.06;;;6.07;80.80
29121;BME280;16191;49.548;8.658;2023-03-03T09:35:32;100938.69;;;6.16;81.52
29121;BME280;16191;49.548;8.658;2023-03-03T09:38:26;100934.59;;;5.95;84.36
29121;BME280;16191;49.548;8.658;2023-03-03T09:41:14;100936.47;;;6.53;81.83
29121;BME280;16191;49.548;8.658;2023-03-03T09:44:17;100930.13;;;6.75;78.24
29121;BME280;16191;49.548;8.658;2023-03-03T09:49:59;100944.69;;;6.85;79.03
29121;BME280;16191;49.548;8.658;2023-03-03T09:52:51;100951.56;;;6.90;77.29
29121;BME280;16191;49.548;8.658;2023-03-03T10:01:06;100952.53;;;7.36;73.01
29121;BME280;16191;49.548;8.658;2023-03-03T10:06:37;100949.44;;;7.67;71.58
29121;BME280;16191;49.548;8.658;2023-03-03T10:12:23;100953.56;;;7.78;69.43
29121;BME280;16191;49.548;8.658;2023-03-03T10:17:47;100964.53;;;8.40;67.22
29121;BME280;16191;49.548;8.658;2023-03-03T10:20:21;100963.72;;;8.37;66.69
29121;BME280;16191;49.548;8.658;2023-03-03T10:22:55;100956.66;;;8.43;66.26
29121;BME280;16191;49.548;8.658;2023-03-03T10:25:37;100948.09;;;8.38;65.69
29121;BME280;16191;49.548;8.658;2023-03-03T10:31:22;100944.97;;;8.63;65.71
29121;BME280;16191;49.548;8.658;2023-03-03T10:36:48;100939.28;;;9.21;63.60
29121;BME280;16191;49.548;8.658;2023-03-03T10:39:39;100953.00;;;8.90;64.66
29121;BME280;16191;49.548;8.658;2023-03-03T10:48:21;100954.75;;;8.90;66.78
29121;BME280;16191;49.548;8.658;2023-03-03T10:54:16;100951.38;;;8.86;64.20
29121;BME280;16191;49.548;8.658;2023-03-03T10:57:04;100943.94;;;9.44;63.60
29121;BME280;16191;49.548;8.658;2023-03-03T10:59:43;100941.13;;;9.51;61.44
29121;BME280;16191;49.548;8.658;2023-03-03T11:02:39;100944.88;;;9.40;61.94
29121;BME280;16191;49.548;8.658;2023-03-03T11:05:16;100946.75;;;10.01;61.26
29121;BME280;16191;49.548;8.658;2023-03-03T11:07:56;100942.72;;;9.89;59.71
29121;BME280;16191;49.548;8.658;2023-03-03T11:18:34;100945.31;;;9.91;58.55
29121;BME280;16191;49.548;8.658;2023-03-03T11:21:11;100945.25;;;9.92;58.68
29121;BME280;16191;49.548;8.658;2023-03-03T11:26:58;100943.66;;;10.18;57.33
29121;BME280;16191;49.548;8.658;2023-03-03T11:29:46;100945.41;;;10.50;57.77
29121;BME280;16191;49.548;8.658;2023-03-03T11:35:27;100945.47;;;10.76;55.38
29121;BME280;16191;49.548;8.658;2023-03-03T11:41:07;100929.94;;;10.72;54.95
29121;BME280;16191;49.548;8.658;2023-03-03T11:43:56;100927.50;;;11.21;54.80
29121;BME280;16191;49.548;8.658;2023-03-03T11:46:43;100926.28;;;11.31;53.82
29121;BME280;16191;49.548;8.658;2023-03-03T11:49:21;100927.94;;;10.81;56.00
29121;BME280;16191;49.548;8.658;2023-03-03T11:54:43;100914.69;;;11.14;52.68
29121;BME280;16191;49.548;8.658;2023-03-03T11:57:30;100915.94;;;11.28;52.31
29121;BME280;16191;49.548;8.658;2023-03-03T12:00:03;100924.00;;;11.22;53.80
29121;BME280;16191;49.548;8.658;2023-03-03T12:08:44;100905.09;;;11.14;52.06
29121;BME280;16191;49.548;8.658;2023-03-03T12:11:26;100905.25;;;11.61;51.81
29121;BME280;16191;49.548;8.658;2023-03-03T12:16:55;100895.63;;;11.88;50.62
29121;BME280;16191;49.548;8.658;2023-03-03T12:22:41;100886.38;;;12.49;49.81
29121;BME280;16191;49.548;8.658;2023-03-03T12:25:46;100886.47;;;11.99;49.51
29121;BME280;16191;49.548;8.658;2023-03-03T12:28:27;100892.78;;;12.41;49.38
29121;BME280;16191;49.548;8.658;2023-03-03T12:39:12;100874.28;;;13.11;48.66
29121;BME280;16191;49.548;8.658;2023-03-03T12:42:22;100860.44;;;13.29;47.38
29121;BME280;16191;49.548;8.658;2023-03-03T12:47:33;100857.50;;;13.57;46.13
29121;BME280;16191;49.548;8.658;2023-03-03T12:52:48;100857.38;;;12.97;47.55
29121;BME280;16191;49.548;8.658;2023-03-03T12:55:33;100845.19;;;13.59;46.43
29121;BME280;16191;49.548;8.658;2023-03-03T12:58:23;100842.03;;;13.90;46.69
29121;BME280;16191;49.548;8.658;2023-03-03T13:01:17;100837.19;;;13.42;46.95
29121;BME280;16191;49.548;8.658;2023-03-03T13:04:11;100843.97;;;13.66;46.09
29121;BME280;16191;49.548;8.658;2023-03-03T13:09:41;100840.41;;;13.87;44.86
29121;BME280;16191;49.548;8.658;2023-03-03T13:12:29;100847.03;;;14.15;44.74
29121;BME280;16191;49.548;8.658;2023-03-03T13:15:26;100839.59;;;14.43;43.52
29121;BME280;16191;49.548;8.658;2023-03-03T13:20:56;100830.28;;;15.08;43.64
29121;BME280;16191;49.548;8.658;2023-03-03T13:23:49;100827.94;;;15.54;42.27
29121;BME280;16191;49.548;8.658;2023-03-03T13:26:32;100826.88;;;15.58;40.36
29121;BME280;16191;49.548;8.658;2023-03-03T13:31:58;100814.19;;;15.49;40.89
29121;BME280;16191;49.548;8.658;2023-03-03T13:37:04;100823.41;;;15.57;41.09
29121;BME280;16191;49.548;8.658;2023-03-03T13:39:37;100825.94;;;15.92;39.07
29121;BME280;16191;49.548;8.658;2023-03-03T13:44:48;100821.44;;;15.78;39.46
29121;BME280;16191;49.548;8.658;2023-03-03T13:47:21;100820.22;;;15.84;39.42
29121;BME280;16191;49.548;8.658;2023-03-03T13:52:49;100815.88;;;15.50;40.26
29121;BME280;16191;49.548;8.658;2023-03-03T13:55:42;100807.94;;;15.34;38.88
29121;BME280;16191;49.548;8.658;2023-03-03T14:01:22;100807.84;;;14.66;39.19
29121;BME280;16191;49.548;8.658;2023-03-03T14:04:05;100800.84;;;15.69;38.64
29121;BME280;16191;49.548;8.658;2023-03-03T14:06:39;100797.50;;;16.45;39.62
29121;BME280;16191;49.548;8.658;2023-03-03T14:12:03;100792.72;;;15.73;37.01
29121;BME280;16191;49.548;8.658;2023-03-03T14:14:46;100780.88;;;16.45;36.78
29121;BME280;16191;49.548;8.658;2023-03-03T14:17:30;100787.34;;;15.42;38.69
29121;BME280;16191;49.548;8.658;2023-03-03T14:20:11;100780.81;;;15.66;39.25
29121;BME280;16191;49.548;8.658;2023-03-03T14:22:49;100771.56;;;16.54;38.71
29121;BME280;16191;49.548;8.658;2023-03-03T14:25:17;100778.41;;;15.95;39.21
29121;BME280;16191;49.548;8.658;2023-03-03T14:30:28;100776.13;;;16.20;38.70
29121;BME280;16191;49.548;8.658;2023-03-03T14:35:43;100777.19;;;15.52;40.01
29121;BME280;16191;49.548;8.658;2023-03-03T14:38:16;100776.81;;;15.59;40.05
29121;BME280;16191;49.548;8.658;2023-03-03T14:40:45;100780.94;;;14.96;40.14
29121;BME280;16191;49.548;8.658;2023-03-03T14:43:25;100772.91;;;14.82;40.32
29121;BME280;16191;49.548;8.658;2023-03-03T14:46:30;100767.44;;;15.87;39.81
29121;BME280;16191;49.548;8.658;2023-03-03T14:49:03;100768.22;;;16.04;39.33
29121;BME280;16191;49.548;8.658;2023-03-03T14:54:13;100772.59;;;15.57;39.58
29121;BME280;16191;49.548;8.658;2023-03-03T14:59:23;100767.63;;;15.99;39.16
29121;BME280;16191;49.548;8.658;2023-03-03T15:02:27;100771.50;;;15.76;38.74
29121;BME280;16191;49.548;8.658;2023-03-03T15:05:12;100771.38;;;14.78;40.34
29121;BME280;16191;49.548;8.658;2023-03-03T15:07:40;100775.75;;;14.43;41.35
29121;BME280;16191;49.548;8.658;2023-03-03T15:10:08;100765.38;;;14.93;40.19
29121;BME280;16191;49.548;8.658;2023-03-03T15:12:36;100766.69;;;15.52;39.91
29121;BME280;16191;49.548;8.658;2023-03-03T15:20:28;100773.94;;;15.47;39.80
29121;BME280;16191;49.548;8.658;2023-03-03T15:26:06;100774.28;;;15.58;39.25
29121;BME280;16191;49.548;8.658;2023-03-03T15:31:33;100772.16;;;15.64;39.24
29121;BME280;16191;49.548;8.658;2023-03-03T15:37:24;100789.06;;;14.74;41.51
29121;BME280;16191;49.548;8.658;2023-03-03T15:40:08;100783.06;;;13.80;43.15
29121;BME280;16191;49.548;8.658;2023-03-03T15:51:05;100789.97;;;13.62;43.93
29121;BME280;16191;49.548;8.658;2023-03-03T15:56:27;100789.59;;;12.90;46.21
29121;BME280;16191;49.548;8.658;2023-03-03T16:01:40;100783.28;;;12.74;45.89
29121;BME280;16191;49.548;8.658;2023-03-03T16:04:14;100791.94;;;13.57;44.83
29121;BME280;16191;49.548;8.658;2023-03-03T16:06:48;100792.91;;;13.35;44.72
29121;BME280;16191;49.548;8.658;2023-03-03T16:12:46;100790.59;;;12.65;46.50